sensor_id;sensor_type;location;lat;lon;timestamp;pressure;altitude;pressure_sealevel;temperature;humidity
77431;BME280;66498;48.564;19.272;2023-04-24T00:01:15;96899.16;;;7.13;65.57
77431;BME280;66498;48.564;19.272;2023-04-24T00:03:42;96897.50;;;7.00;66.92
77431;BME280;66498;48.564;19.272;2023-04-24T00:06:08;96900.63;;;6.84;67.60
77431;BME280;66498;48.564;19.272;2023-04-24T00:08:34;96892.53;;;6.92;67.47
77431;BME280;66498;48.564;19.272;2023-04-24T00:11:01;96888.72;;;7.13;66.83
77431;BME280;66498;48.564;19.272;2023-04-24T00:13:26;96876.63;;;7.00;67.00
77431;BME280;66498;48.564;19.272;2023-04-24T00:15:54;96889.31;;;6.97;67.36
77431;BME280;66498;48.564;19.272;2023-04-24T00:18:19;96885.13;;;6.64;68.80
77431;BME280;66498;48.564;19.272;2023-04-24T00:20:45;96881.69;;;6.70;67.69
77431;BME280;66498;48.564;19.272;2023-04-24T00:23:12;96889.22;;;6.78;67.57
77431;BME280;66498;48.564;19.272;2023-04-24T00:25:37;96876.19;;;6.53;68.45
77431;BME280;66498;48.564;19.272;2023-04-24T00:28:03;96877.63;;;6.11;69.94
77431;BME280;66498;48.564;19.272;2023-04-24T00:30:28;96881.25;;;6.42;69.24
77431;BME280;66498;48.564;19.272;2023-04-24T00:32:54;96878.50;;;6.36;69.26
77431;BME280;66498;48.564;19.272;2023-04-24T00:35:19;96876.31;;;6.33;69.10
77431;BME280;66498;48.564;19.272;2023-04-24T00:37:45;96877.97;;;6.21;69.53
77431;BME280;66498;48.564;19.272;2023-04-24T00:40:11;96872.88;;;6.01;70.44
77431;BME280;66498;48.564;19.272;2023-04-24T00:42:37;96865.47;;;6.36;69.06
77431;BME280;66498;48.564;19.272;2023-04-24T00:45:02;96864.63;;;6.43;69.04
77431;BME280;66498;48.564;19.272;2023-04-24T00:47:29;96880.00;;;5.74;71.11
77431;BME280;66498;48.564;19.272;2023-04-24T00:49:55;96870.38;;;5.75;71.46
77431;BME280;66498;48.564;19.272;2023-04-24T00:52:20;96872.47;;;5.98;70.89
77431;BME280;66498;48.564;19.272;2023-04-24T00:54:49;96868.50;;;5.88;71.10
77431;BME280;66498;48.564;19.272;2023-04-24T00:57:15;96867.31;;;5.84;71.78
77431;BME280;66498;48.564;19.272;2023-04-24T00:59:41;96864.72;;;5.84;71.37
77431;BME280;66498;48.564;19.272;2023-04-24T01:02:09;96858.97;;;5.69;71.83
77431;BME280;66498;48.564;19.272;2023-04-24T01:04:35;96861.94;;;5.73;72.51
77431;BME280;66498;48.564;19.272;2023-04-24T01:07:01;96854.88;;;5.86;71.11
77431;BME280;66498;48.564;19.272;2023-04-24T01:09:26;96858.44;;;6.05;71.07
77431;BME280;66498;48.564;19.272;2023-04-24T01:11:52;96858.84;;;5.44;72.87
77431;BME280;66498;48.564;19.272;2023-04-24T01:14:18;96856.00;;;5.52;72.57
77431;BME280;66498;48.564;19.272;2023-04-24T01:16:43;96867.56;;;5.69;72.39
77431;BME280;66498;48.564;19.272;2023-04-24T01:19:09;96863.94;;;5.77;71.99
77431;BME280;66498;48.564;19.272;2023-04-24T01:21:36;96862.47;;;6.01;70.87
77431;BME280;66498;48.564;19.272;2023-04-24T01:24:04;96863.16;;;5.70;72.40
77431;BME280;66498;48.564;19.272;2023-04-24T01:26:30;96854.41;;;5.58;72.89
77431;BME280;66498;48.564;19.272;2023-04-24T01:28:56;96849.38;;;5.56;73.40
77431;BME280;66498;48.564;19.272;2023-04-24T01:31:22;96852.31;;;5.80;72.23
77431;BME280;66498;48.564;19.272;2023-04-24T01:33:47;96857.13;;;5.76;72.37
77431;BME280;66498;48.564;19.272;2023-04-24T01:36:13;96857.53;;;5.73;72.30
77431;BME280;66498;48.564;19.272;2023-04-24T01:38:39;96853.50;;;5.77;72.47
77431;BME280;66498;48.564;19.272;2023-04-24T01:41:04;96852.97;;;5.62;73.01
77431;BME280;66498;48.564;19.272;2023-04-24T01:43:30;96847.69;;;5.30;74.01
77431;BME280;66498;48.564;19.272;2023-04-24T01:45:56;96855.66;;;5.35;74.05
77431;BME280;66498;48.564;19.272;2023-04-24T01:48:22;96853.13;;;5.09;74.23
77431;BME280;66498;48.564;19.272;2023-04-24T01:50:47;96854.53;;;5.05;74.39
77431;BME280;66498;48.564;19.272;2023-04-24T01:53:13;96848.31;;;5.12;74.81
77431;BME280;66498;48.564;19.272;2023-04-24T01:55:38;96845.50;;;5.27;73.92
77431;BME280;66498;48.564;19.272;2023-04-24T01:58:04;96846.91;;;5.16;74.60
77431;BME280;66498;48.564;19.272;2023-04-24T02:00:29;96839.91;;;5.24;74.74
77431;BME280;66498;48.564;19.272;2023-04-24T02:02:55;96854.31;;;5.13;74.67
77431;BME280;66498;48.564;19.272;2023-04-24T02:05:20;96848.47;;;5.37;74.83
77431;BME280;66498;48.564;19.272;2023-04-24T02:07:46;96852.00;;;5.50;74.33
77431;BME280;66498;48.564;19.272;2023-04-24T02:10:11;96840.41;;;5.52;73.75
77431;BME280;66498;48.564;19.272;2023-04-24T02:12:37;96840.81;;;5.42;75.25
77431;BME280;66498;48.564;19.272;2023-04-24T02:15:03;96831.00;;;5.51;74.40
77431;BME280;66498;48.564;19.272;2023-04-24T02:17:29;96828.09;;;5.73;74.26
77431;BME280;66498;48.564;19.272;2023-04-24T02:19:55;96830.50;;;5.74;73.50
77431;BME280;66498;48.564;19.272;2023-04-24T02:22:21;96831.63;;;5.98;72.70
77431;BME280;66498;48.564;19.272;2023-04-24T02:24:46;96822.72;;;6.12;72.16
77431;BME280;66498;48.564;19.272;2023-04-24T02:27:12;96820.81;;;6.26;71.29
77431;BME280;66498;48.564;19.272;2023-04-24T02:29:38;96820.50;;;6.41;70.36
77431;BME280;66498;48.564;19.272;2023-04-24T02:32:03;96810.44;;;6.20;71.41
77431;BME280;66498;48.564;19.272;2023-04-24T02:34:28;96814.63;;;6.21;71.55
77431;BME280;66498;48.564;19.272;2023-04-24T02:36:54;96813.97;;;6.32;70.65
77431;BME280;66498;48.564;19.272;2023-04-24T02:39:20;96804.56;;;5.99;71.48
77431;BME280;66498;48.564;19.272;2023-04-24T02:41:45;96808.41;;;5.83;72.74
77431;BME280;66498;48.564;19.272;2023-04-24T02:44:11;96813.91;;;5.68;73.57
77431;BME280;66498;48.564;19.272;2023-04-24T02:46:36;96810.91;;;5.65;73.47
77431;BME280;66498;48.564;19.272;2023-04-24T02:49:02;96803.94;;;5.97;72.04
77431;BME280;66498;48.564;19.272;2023-04-24T02:51:28;96806.41;;;5.85;72.14
77431;BME280;66498;48.564;19.272;2023-04-24T02:53:53;96805.44;;;5.73;73.22
77431;BME280;66498;48.564;19.272;2023-04-24T02:56:19;96804.16;;;5.57;74.27
77431;BME280;66498;48.564;19.272;2023-04-24T02:58:44;96810.03;;;5.33;76.01
77431;BME280;66498;48.564;19.272;2023-04-24T03:01:10;96800.84;;;5.24;77.15
77431;BME280;66498;48.564;19.272;2023-04-24T03:03:37;96799.47;;;5.14;77.22
77431;BME280;66498;48.564;19.272;2023-04-24T03:06:03;96800.22;;;5.28;77.35
77431;BME280;66498;48.564;19.272;2023-04-24T03:08:31;96798.34;;;5.49;76.60
77431;BME280;66498;48.564;19.272;2023-04-24T03:10:56;96790.03;;;5.72;75.79
77431;BME280;66498;48.564;19.272;2023-04-24T03:13:22;96792.16;;;5.88;75.38
77431;BME280;66498;48.564;19.272;2023-04-24T03:15:48;96790.94;;;5.90;75.34
77431;BME280;66498;48.564;19.272;2023-04-24T03:18:14;96797.34;;;6.01;74.85
77431;BME280;66498;48.564;19.272;2023-04-24T03:20:39;96792.81;;;5.77;74.93
77431;BME280;66498;48.564;19.272;2023-04-24T03:23:05;96785.25;;;5.68;75.30
77431;BME280;66498;48.564;19.272;2023-04-24T03:25:30;96791.94;;;5.89;74.92
77431;BME280;66498;48.564;19.272;2023-04-24T03:27:56;96800.06;;;5.75;75.43
77431;BME280;66498;48.564;19.272;2023-04-24T03:30:22;96788.31;;;5.90;74.15
77431;BME280;66498;48.564;19.272;2023-04-24T03:32:47;96785.88;;;6.34;72.76
77431;BME280;66498;48.564;19.272;2023-04-24T03:35:13;96784.47;;;6.31;72.95
77431;BME280;66498;48.564;19.272;2023-04-24T03:37:38;96789.59;;;6.20;74.37
77431;BME280;66498;48.564;19.272;2023-04-24T03:40:13;96788.19;;;6.17;75.05
77431;BME280;66498;48.564;19.272;2023-04-24T03:42:39;96789.06;;;6.36;74.01
77431;BME280;66498;48.564;19.272;2023-04-24T03:45:05;96784.72;;;5.91;75.80
77431;BME280;66498;48.564;19.272;2023-04-24T03:47:31;96780.16;;;5.80;76.07
77431;BME280;66498;48.564;19.272;2023-04-24T03:49:56;96784.94;;;5.90;75.68
77431;BME280;66498;48.564;19.272;2023-04-24T03:52:22;96782.13;;;5.91;75.40
77431;BME280;66498;48.564;19.272;2023-04-24T03:54:47;96776.97;;;5.85;76.78
77431;BME280;66498;48.564;19.272;2023-04-24T03:57:13;96773.59;;;5.78;77.77
77431;BME280;66498;48.564;19.272;2023-04-24T03:59:38;96769.56;;;5.82;76.06
77431;BME280;66498;48.564;19.272;2023-04-24T04:02:04;96771.50;;;6.25;74.35
77431;BME280;66498;48.564;19.272;2023-04-24T04:04:29;96766.56;;;6.16;74.17
77431;BME280;66498;48.564;19.272;2023-04-24T04:06:55;96764.78;;;6.10;74.65
77431;BME280;66498;48.564;19.272;2023-04-24T04:09:20;96762.63;;;6.01;75.04
77431;BME280;66498;48.564;19.272;2023-04-24T04:11:46;96758.03;;;6.28;74.38
77431;BME280;66498;48.564;19.272;2023-04-24T04:14:12;96757.19;;;6.09;75.45
77431;BME280;66498;48.564;19.272;2023-04-24T04:16:37;96747.47;;;6.23;75.28
77431;BME280;66498;48.564;19.272;2023-04-24T04:19:03;96751.50;;;6.44;73.66
77431;BME280;66498;48.564;19.272;2023-04-24T04:21:29;96748.19;;;6.55;73.42
77431;BME280;66498;48.564;19.272;2023-04-24T04:23:56;96743.69;;;6.62;73.69
77431;BME280;66498;48.564;19.272;2023-04-24T04:26:22;96734.91;;;6.38;74.30
77431;BME280;66498;48.564;19.272;2023-04-24T04:28:51;96748.78;;;6.57;74.43
77431;BME280;66498;48.564;19.272;2023-04-24T04:31:16;96742.19;;;6.54;74.50
77431;BME280;66498;48.564;19.272;2023-04-24T04:33:42;96736.13;;;6.79;73.42
77431;BME280;66498;48.564;19.272;2023-04-24T04:36:08;96736.09;;;6.60;74.72
77431;BME280;66498;48.564;19.272;2023-04-24T04:38:34;96737.50;;;6.63;74.93
77431;BME280;66498;48.564;19.272;2023-04-24T04:41:00;96735.94;;;6.55;75.70
77431;BME280;66498;48.564;19.272;2023-04-24T04:43:25;96732.41;;;6.68;75.60
77431;BME280;66498;48.564;19.272;2023-04-24T04:45:54;96721.91;;;6.56;76.73
77431;BME280;66498;48.564;19.272;2023-04-24T04:48:21;96716.69;;;6.56;75.36
77431;BME280;66498;48.564;19.272;2023-04-24T04:50:47;96718.19;;;6.46;77.14
77431;BME280;66498;48.564;19.272;2023-04-24T04:53:13;96720.22;;;6.62;75.94
77431;BME280;66498;48.564;19.272;2023-04-24T04:55:38;96720.81;;;6.64;74.83
77431;BME280;66498;48.564;19.272;2023-04-24T04:58:04;96719.00;;;6.64;76.10
77431;BME280;66498;48.564;19.272;2023-04-24T05:00:29;96715.31;;;6.72;77.28
77431;BME280;66498;48.564;19.272;2023-04-24T05:03:01;96716.50;;;6.76;77.97
77431;BME280;66498;48.564;19.272;2023-04-24T05:05:27;96711.97;;;6.65;79.23
77431;BME280;66498;48.564;19.272;2023-04-24T05:07:53;96721.41;;;6.66;78.82
77431;BME280;66498;48.564;19.272;2023-04-24T05:10:19;96726.56;;;6.73;79.50
77431;BME280;66498;48.564;19.272;2023-04-24T05:12:45;96723.19;;;6.66;78.24
77431;BME280;66498;48.564;19.272;2023-04-24T05:15:12;96721.69;;;6.58;79.14
77431;BME280;66498;48.564;19.272;2023-04-24T05:17:39;96734.22;;;6.68;78.63
77431;BME280;66498;48.564;19.272;2023-04-24T05:20:07;96731.91;;;6.59;77.79
77431;BME280;66498;48.564;19.272;2023-04-24T05:22:33;96716.13;;;6.73;79.68
77431;BME280;66498;48.564;19.272;2023-04-24T05:24:59;96721.50;;;6.78;77.66
77431;BME280;66498;48.564;19.272;2023-04-24T05:27:24;96719.09;;;6.95;78.54
77431;BME280;66498;48.564;19.272;2023-04-24T05:29:51;96720.06;;;7.00;77.30
77431;BME280;66498;48.564;19.272;2023-04-24T05:32:17;96720.06;;;7.00;77.35
77431;BME280;66498;48.564;19.272;2023-04-24T05:34:42;96725.41;;;7.24;75.67
77431;BME280;66498;48.564;19.272;2023-04-24T05:37:08;96710.28;;;7.44;76.05
77431;BME280;66498;48.564;19.272;2023-04-24T05:39:35;96711.78;;;7.52;76.52
77431;BME280;66498;48.564;19.272;2023-04-24T05:42:02;96721.03;;;7.66;76.04
77431;BME280;66498;48.564;19.272;2023-04-24T05:44:28;96714.06;;;7.60;76.71
77431;BME280;66498;48.564;19.272;2023-04-24T05:46:54;96709.84;;;7.47;76.64
77431;BME280;66498;48.564;19.272;2023-04-24T05:49:22;96696.72;;;7.35;78.01
77431;BME280;66498;48.564;19.272;2023-04-24T05:51:48;96706.31;;;7.53;78.78
77431;BME280;66498;48.564;19.272;2023-04-24T05:54:13;96706.72;;;7.69;80.14
77431;BME280;66498;48.564;19.272;2023-04-24T05:56:39;96705.03;;;7.74;78.49
77431;BME280;66498;48.564;19.272;2023-04-24T05:59:05;96700.44;;;7.88;76.63
77431;BME280;66498;48.564;19.272;2023-04-24T06:01:31;96696.19;;;7.87;78.58
77431;BME280;66498;48.564;19.272;2023-04-24T06:03:57;96704.28;;;7.86;77.03
77431;BME280;66498;48.564;19.272;2023-04-24T06:06:23;96712.56;;;7.82;75.67
77431;BME280;66498;48.564;19.272;2023-04-24T06:08:49;96709.16;;;7.94;74.26
77431;BME280;66498;48.564;19.272;2023-04-24T06:11:15;96684.88;;;8.05;74.17
77431;BME280;66498;48.564;19.272;2023-04-24T06:13:41;96685.00;;;8.10;74.30
77431;BME280;66498;48.564;19.272;2023-04-24T06:16:06;96685.78;;;7.99;74.35
77431;BME280;66498;48.564;19.272;2023-04-24T06:18:32;96689.63;;;7.96;74.41
77431;BME280;66498;48.564;19.272;2023-04-24T06:20:57;96697.41;;;8.26;73.75
77431;BME280;66498;48.564;19.272;2023-04-24T06:23:23;96695.09;;;8.18;74.30
77431;BME280;66498;48.564;19.272;2023-04-24T06:25:48;96695.56;;;8.27;72.47
77431;BME280;66498;48.564;19.272;2023-04-24T06:28:15;96692.28;;;8.20;70.90
77431;BME280;66498;48.564;19.272;2023-04-24T06:30:40;96687.94;;;8.14;71.16
77431;BME280;66498;48.564;19.272;2023-04-24T06:33:06;96683.84;;;8.18;70.63
77431;BME280;66498;48.564;19.272;2023-04-24T06:35:31;96684.00;;;8.23;71.69
77431;BME280;66498;48.564;19.272;2023-04-24T06:37:57;96691.03;;;8.34;72.58
77431;BME280;66498;48.564;19.272;2023-04-24T06:40:23;96686.16;;;8.38;71.79
77431;BME280;66498;48.564;19.272;2023-04-24T06:42:48;96686.28;;;8.43;71.13
77431;BME280;66498;48.564;19.272;2023-04-24T06:45:14;96677.16;;;8.34;71.85
77431;BME280;66498;48.564;19.272;2023-04-24T06:47:39;96682.28;;;8.52;68.88
77431;BME280;66498;48.564;19.272;2023-04-24T06:50:05;96684.34;;;8.50;69.30
77431;BME280;66498;48.564;19.272;2023-04-24T06:52:31;96683.91;;;8.41;70.69
77431;BME280;66498;48.564;19.272;2023-04-24T06:55:00;96691.63;;;8.48;70.34
77431;BME280;66498;48.564;19.272;2023-04-24T06:57:27;96685.38;;;8.49;73.23
77431;BME280;66498;48.564;19.272;2023-04-24T06:59:53;96682.84;;;8.66;69.91
77431;BME280;66498;48.564;19.272;2023-04-24T07:02:24;96689.88;;;8.89;69.93
77431;BME280;66498;48.564;19.272;2023-04-24T07:04:49;96689.66;;;8.79;69.80
77431;BME280;66498;48.564;19.272;2023-04-24T07:07:15;96684.09;;;8.75;69.99
77431;BME280;66498;48.564;19.272;2023-04-24T07:09:41;96685.78;;;8.81;72.18
77431;BME280;66498;48.564;19.272;2023-04-24T07:12:11;96689.66;;;8.90;70.19
77431;BME280;66498;48.564;19.272;2023-04-24T07:14:37;96683.47;;;9.08;67.37
77431;BME280;66498;48.564;19.272;2023-04-24T07:17:04;96683.34;;;9.15;67.77
77431;BME280;66498;48.564;19.272;2023-04-24T07:19:30;96675.53;;;9.32;68.20
77431;BME280;66498;48.564;19.272;2023-04-24T07:21:56;96676.50;;;9.42;69.51
77431;BME280;66498;48.564;19.272;2023-04-24T07:24:24;96676.78;;;9.29;71.61
77431;BME280;66498;48.564;19.272;2023-04-24T07:26:51;96685.47;;;9.46;71.79
77431;BME280;66498;48.564;19.272;2023-04-24T07:29:17;96681.28;;;9.45;70.91
77431;BME280;66498;48.564;19.272;2023-04-24T07:31:42;96678.53;;;9.52;70.38
77431;BME280;66498;48.564;19.272;2023-04-24T07:34:08;96679.56;;;9.51;72.46
77431;BME280;66498;48.564;19.272;2023-04-24T07:36:33;96678.19;;;9.48;72.51
77431;BME280;66498;48.564;19.272;2023-04-24T07:38:59;96684.31;;;9.54;72.35
77431;BME280;66498;48.564;19.272;2023-04-24T07:41:25;96685.16;;;9.43;72.18
77431;BME280;66498;48.564;19.272;2023-04-24T07:43:50;96686.75;;;9.44;70.22
77431;BME280;66498;48.564;19.272;2023-04-24T07:46:16;96688.72;;;9.65;68.93
77431;BME280;66498;48.564;19.272;2023-04-24T07:48:42;96687.78;;;10.22;68.24
77431;BME280;66498;48.564;19.272;2023-04-24T07:51:08;96688.66;;;10.45;67.43
77431;BME280;66498;48.564;19.272;2023-04-24T07:53:36;96690.06;;;10.69;65.45
77431;BME280;66498;48.564;19.272;2023-04-24T07:56:01;96689.75;;;10.65;66.03
77431;BME280;66498;48.564;19.272;2023-04-24T07:58:27;96682.78;;;10.76;64.98
77431;BME280;66498;48.564;19.272;2023-04-24T08:00:52;96687.50;;;10.74;65.65
77431;BME280;66498;48.564;19.272;2023-04-24T08:03:18;96683.28;;;10.73;65.47
77431;BME280;66498;48.564;19.272;2023-04-24T08:05:45;96681.09;;;10.65;66.62
77431;BME280;66498;48.564;19.272;2023-04-24T08:08:11;96682.59;;;10.61;67.57
77431;BME280;66498;48.564;19.272;2023-04-24T08:10:36;96674.63;;;10.73;66.35
77431;BME280;66498;48.564;19.272;2023-04-24T08:13:02;96676.28;;;10.79;66.73
77431;BME280;66498;48.564;19.272;2023-04-24T08:15:27;96684.09;;;10.74;67.59
77431;BME280;66498;48.564;19.272;2023-04-24T08:17:53;96675.75;;;10.77;66.59
77431;BME280;66498;48.564;19.272;2023-04-24T08:20:19;96681.03;;;10.82;66.88
77431;BME280;66498;48.564;19.272;2023-04-24T08:22:44;96676.34;;;10.84;66.32
77431;BME280;66498;48.564;19.272;2023-04-24T08:25:12;96674.56;;;10.89;66.17
77431;BME280;66498;48.564;19.272;2023-04-24T08:27:38;96673.84;;;10.94;65.88
77431;BME280;66498;48.564;19.272;2023-04-24T08:30:06;96680.72;;;11.00;65.70
77431;BME280;66498;48.564;19.272;2023-04-24T08:32:32;96680.84;;;11.10;65.77
77431;BME280;66498;48.564;19.272;2023-04-24T08:34:58;96688.31;;;11.19;65.87
77431;BME280;66498;48.564;19.272;2023-04-24T08:37:25;96690.28;;;11.28;65.38
77431;BME280;66498;48.564;19.272;2023-04-24T08:39:52;96687.19;;;11.36;65.09
77431;BME280;66498;48.564;19.272;2023-04-24T08:42:19;96683.81;;;11.41;64.51
77431;BME280;66498;48.564;19.272;2023-04-24T08:44:46;96682.09;;;11.52;65.88
77431;BME280;66498;48.564;19.272;2023-04-24T08:47:12;96678.44;;;11.53;64.46
77431;BME280;66498;48.564;19.272;2023-04-24T08:49:38;96687.50;;;11.67;65.99
77431;BME280;66498;48.564;19.272;2023-04-24T08:52:07;96691.88;;;11.83;64.95
77431;BME280;66498;48.564;19.272;2023-04-24T08:54:34;96686.16;;;11.92;64.52
77431;BME280;66498;48.564;19.272;2023-04-24T08:57:01;96688.16;;;11.79;64.27
77431;BME280;66498;48.564;19.272;2023-04-24T08:59:29;96690.69;;;11.69;64.50
77431;BME280;66498;48.564;19.272;2023-04-24T09:01:55;96688.59;;;11.71;64.73
77431;BME280;66498;48.564;19.272;2023-04-24T09:04:22;96680.69;;;11.71;64.14
77431;BME280;66498;48.564;19.272;2023-04-24T09:06:51;96684.34;;;11.65;63.97
77431;BME280;66498;48.564;19.272;2023-04-24T09:09:17;96688.28;;;11.68;64.61
77431;BME280;66498;48.564;19.272;2023-04-24T09:11:44;96690.63;;;11.64;64.38
77431;BME280;66498;48.564;19.272;2023-04-24T09:14:14;96694.25;;;11.58;64.82
77431;BME280;66498;48.564;19.272;2023-04-24T09:16:41;96698.59;;;11.47;63.32
77431;BME280;66498;48.564;19.272;2023-04-24T09:19:06;96697.97;;;11.35;67.06
77431;BME280;66498;48.564;19.272;2023-04-24T09:21:33;96696.06;;;11.30;66.40
77431;BME280;66498;48.564;19.272;2023-04-24T09:24:01;96694.66;;;11.23;69.30
77431;BME280;66498;48.564;19.272;2023-04-24T09:26:31;96692.88;;;11.06;72.30
77431;BME280;66498;48.564;19.272;2023-04-24T09:28:58;96698.09;;;11.01;73.56
77431;BME280;66498;48.564;19.272;2023-04-24T09:31:27;96697.19;;;10.91;75.17
77431;BME280;66498;48.564;19.272;2023-04-24T09:33:58;96700.06;;;10.72;76.65
77431;BME280;66498;48.564;19.272;2023-04-24T09:36:35;96701.28;;;10.64;77.54
77431;BME280;66498;48.564;19.272;2023-04-24T09:39:08;96686.09;;;10.67;75.09
77431;BME280;66498;48.564;19.272;2023-04-24T09:41:44;96688.16;;;10.64;76.98
77431;BME280;66498;48.564;19.272;2023-04-24T09:44:17;96685.91;;;10.73;76.69
77431;BME280;66498;48.564;19.272;2023-04-24T09:46:48;96689.56;;;10.72;77.88
77431;BME280;66498;48.564;19.272;2023-04-24T09:49:16;96691.09;;;10.68;77.72
77431;BME280;66498;48.564;19.272;2023-04-24T09:51:42;96691.66;;;10.70;77.02
77431;BME280;66498;48.564;19.272;2023-04-24T09:54:19;96689.09;;;10.75;76.13
77431;BME280;66498;48.564;19.272;2023-04-24T09:56:49;96693.78;;;10.73;77.43
77431;BME280;66498;48.564;19.272;2023-04-24T09:59:17;96691.50;;;10.77;77.37
77431;BME280;66498;48.564;19.272;2023-04-24T10:01:43;96691.22;;;10.78;77.19
77431;BME280;66498;48.564;19.272;2023-04-24T10:04:22;96687.44;;;10.69;77.43
77431;BME280;66498;48.564;19.272;2023-04-24T10:06:50;96686.75;;;10.57;78.07
77431;BME280;66498;48.564;19.272;2023-04-24T10:09:21;96688.44;;;10.46;79.52
77431;BME280;66498;48.564;19.272;2023-04-24T10:11:48;96694.47;;;10.47;79.82
77431;BME280;66498;48.564;19.272;2023-04-24T10:14:16;96692.09;;;10.45;78.19
77431;BME280;66498;48.564;19.272;2023-04-24T10:16:43;96687.56;;;10.40;79.33
77431;BME280;66498;48.564;19.272;2023-04-24T10:19:09;96680.91;;;10.33;79.63
77431;BME280;66498;48.564;19.272;2023-04-24T10:21:36;96689.78;;;10.32;80.68
77431;BME280;66498;48.564;19.272;2023-04-24T10:24:08;96688.53;;;10.34;81.44
77431;BME280;66498;48.564;19.272;2023-04-24T10:26:34;96685.72;;;10.24;81.68
77431;BME280;66498;48.564;19.272;2023-04-24T10:29:00;96691.41;;;10.33;81.40
77431;BME280;66498;48.564;19.272;2023-04-24T10:31:27;96691.44;;;10.21;81.51
77431;BME280;66498;48.564;19.272;2023-04-24T10:33:56;96695.09;;;10.20;80.99
77431;BME280;66498;48.564;19.272;2023-04-24T10:36:24;96691.38;;;10.16;81.32
77431;BME280;66498;48.564;19.272;2023-04-24T10:38:53;96688.91;;;10.09;82.13
77431;BME280;66498;48.564;19.272;2023-04-24T10:41:21;96685.00;;;10.12;83.13
77431;BME280;66498;48.564;19.272;2023-04-24T10:44:13;96691.59;;;10.14;82.09
77431;BME280;66498;48.564;19.272;2023-04-24T10:46:43;96692.06;;;10.11;81.42
77431;BME280;66498;48.564;19.272;2023-04-24T10:49:08;96700.25;;;10.15;82.75
77431;BME280;66498;48.564;19.272;2023-04-24T10:54:33;96699.09;;;10.23;82.68
77431;BME280;66498;48.564;19.272;2023-04-24T10:59:43;96696.53;;;10.11;83.38
77431;BME280;66498;48.564;19.272;2023-04-24T11:02:09;96697.25;;;10.06;82.24
77431;BME280;66498;48.564;19.272;2023-04-24T11:04:35;96694.38;;;10.08;82.54
77431;BME280;66498;48.564;19.272;2023-04-24T11:07:02;96688.19;;;10.14;82.93
77431;BME280;66498;48.564;19.272;2023-04-24T11:09:30;96686.91;;;10.16;82.53
77431;BME280;66498;48.564;19.272;2023-04-24T11:17:31;96675.63;;;10.16;82.97
77431;BME280;66498;48.564;19.272;2023-04-24T11:20:02;96678.25;;;10.16;84.47
77431;BME280;66498;48.564;19.272;2023-04-24T11:22:32;96671.19;;;10.16;83.36
77431;BME280;66498;48.564;19.272;2023-04-24T11:25:00;96669.81;;;10.14;83.67
77431;BME280;66498;48.564;19.272;2023-04-24T11:27:30;96670.16;;;10.17;82.63
77431;BME280;66498;48.564;19.272;2023-04-24T11:32:26;96678.50;;;10.14;82.94
77431;BME280;66498;48.564;19.272;2023-04-24T11:37:19;96674.91;;;10.21;82.81
77431;BME280;66498;48.564;19.272;2023-04-24T11:39:45;96673.34;;;10.36;82.54
77431;BME280;66498;48.564;19.272;2023-04-24T11:42:14;96679.88;;;10.34;82.76
77431;BME280;66498;48.564;19.272;2023-04-24T11:44:41;96681.28;;;10.41;82.48
77431;BME280;66498;48.564;19.272;2023-04-24T11:47:08;96685.31;;;10.49;82.17
77431;BME280;66498;48.564;19.272;2023-04-24T11:49:36;96682.22;;;10.52;81.31
77431;BME280;66498;48.564;19.272;2023-04-24T11:52:02;96681.38;;;10.47;81.26
77431;BME280;66498;48.564;19.272;2023-04-24T11:54:27;96677.28;;;10.56;81.29
77431;BME280;66498;48.564;19.272;2023-04-24T11:56:53;96675.66;;;10.72;81.87
77431;BME280;66498;48.564;19.272;2023-04-24T11:59:18;96671.41;;;10.87;81.28
77431;BME280;66498;48.564;19.272;2023-04-24T12:01:45;96664.97;;;11.00;80.68
77431;BME280;66498;48.564;19.272;2023-04-24T12:04:15;96666.31;;;11.25;82.05
77431;BME280;66498;48.564;19.272;2023-04-24T12:07:01;96665.09;;;11.32;80.71
77431;BME280;66498;48.564;19.272;2023-04-24T12:09:27;96658.44;;;11.25;80.22
77431;BME280;66498;48.564;19.272;2023-04-24T12:11:53;96662.03;;;11.19;81.61
77431;BME280;66498;48.564;19.272;2023-04-24T12:14:22;96663.09;;;11.18;79.74
77431;BME280;66498;48.564;19.272;2023-04-24T12:16:51;96652.59;;;11.18;79.53
77431;BME280;66498;48.564;19.272;2023-04-24T12:19:23;96654.69;;;11.21;80.13
77431;BME280;66498;48.564;19.272;2023-04-24T12:22:05;96663.31;;;11.16;79.27
77431;BME280;66498;48.564;19.272;2023-04-24T12:24:31;96649.22;;;11.22;79.66
77431;BME280;66498;48.564;19.272;2023-04-24T12:26:57;96649.03;;;11.07;79.92
77431;BME280;66498;48.564;19.272;2023-04-24T12:29:24;96646.66;;;11.05;80.57
77431;BME280;66498;48.564;19.272;2023-04-24T12:31:51;96652.88;;;11.21;80.96
77431;BME280;66498;48.564;19.272;2023-04-24T12:34:18;96646.03;;;11.20;80.37
77431;BME280;66498;48.564;19.272;2023-04-24T12:36:43;96633.19;;;11.24;79.67
77431;BME280;66498;48.564;19.272;2023-04-24T12:39:18;96636.75;;;11.12;78.89
77431;BME280;66498;48.564;19.272;2023-04-24T12:41:57;96634.63;;;11.09;80.09
77431;BME280;66498;48.564;19.272;2023-04-24T12:46:55;96625.34;;;11.02;78.91
77431;BME280;66498;48.564;19.272;2023-04-24T12:49:21;96620.03;;;10.97;79.47
77431;BME280;66498;48.564;19.272;2023-04-24T12:51:47;96616.31;;;10.93;79.64
77431;BME280;66498;48.564;19.272;2023-04-24T12:54:12;96616.72;;;11.06;79.29
77431;BME280;66498;48.564;19.272;2023-04-24T12:56:38;96616.88;;;10.95;79.23
77431;BME280;66498;48.564;19.272;2023-04-24T12:59:04;96608.81;;;11.01;80.15
77431;BME280;66498;48.564;19.272;2023-04-24T13:01:30;96611.13;;;10.98;80.47
77431;BME280;66498;48.564;19.272;2023-04-24T13:03:56;96615.59;;;10.97;79.55
77431;BME280;66498;48.564;19.272;2023-04-24T13:06:22;96608.69;;;10.91;79.27
77431;BME280;66498;48.564;19.272;2023-04-24T13:08:47;96606.25;;;10.84;80.63
77431;BME280;66498;48.564;19.272;2023-04-24T13:11:14;96599.41;;;10.83;81.15